createdAt,value
2018-09-17T00:00:49.671Z,0.00
2018-09-17T00:01:49.983Z,0.00
2018-09-17T00:02:50.281Z,0.00
2018-09-17T00:03:50.215Z,0.00
2018-09-17T00:04:50.143Z,0.00
2018-09-17T00:06:11.199Z,0.00
2018-09-17T00:07:11.480Z,0.00
2018-09-17T00:08:11.638Z,0.00
2018-09-17T00:09:53.809Z,0.00
2018-09-17T00:10:53.897Z,0.00
2018-09-17T00:11:54.069Z,0.00
2018-09-17T00:13:15.082Z,0.00
2018-09-17T00:14:15.245Z,0.00
2018-09-17T00:15:15.391Z,0.00
2018-09-17T00:16:15.321Z,0.00
2018-09-17T00:17:36.610Z,0.00
2018-09-17T00:18:36.451Z,0.00
2018-09-17T00:19:36.554Z,0.00
2018-09-17T00:20:36.673Z,0.00
2018-09-17T00:21:36.775Z,0.00
2018-09-17T00:22:36.896Z,0.00
2018-09-17T00:23:37.182Z,0.00
2018-09-17T00:24:37.321Z,0.00
2018-09-17T00:25:36.430Z,0.00
2018-09-17T00:26:36.499Z,0.00
2018-09-17T00:27:36.639Z,0.00
2018-09-17T00:28:36.950Z,0.00
2018-09-17T00:29:37.211Z,0.00
2018-09-17T00:30:37.284Z,0.00
2018-09-17T00:31:37.221Z,0.00
2018-09-17T00:32:36.544Z,0.00
2018-09-17T00:33:36.748Z,0.00
2018-09-17T00:34:36.826Z,0.00
2018-09-17T00:35:36.835Z,0.00
2018-09-17T00:36:37.206Z,0.00
2018-09-17T00:37:37.391Z,0.00
2018-09-17T00:38:36.418Z,0.00
2018-09-17T00:39:57.650Z,0.00
2018-09-17T00:40:57.779Z,0.00
2018-09-17T00:41:57.980Z,0.00
2018-09-17T00:42:58.727Z,0.00
2018-09-17T00:43:57.984Z,0.00
2018-09-17T00:44:58.206Z,0.00
2018-09-17T00:45:58.065Z,0.00
2018-09-17T00:46:58.195Z,0.00
2018-09-17T00:48:19.325Z,0.00
2018-09-17T00:49:19.673Z,0.00
2018-09-17T00:50:19.704Z,0.00
2018-09-17T00:51:20.113Z,0.00
2018-09-17T00:52:40.196Z,0.00
2018-09-17T00:53:41.334Z,0.00
2018-09-17T00:54:40.574Z,0.00
2018-09-17T00:56:01.580Z,0.00
2018-09-17T00:57:01.742Z,0.00
2018-09-17T00:58:02.060Z,0.00
2018-09-17T00:59:02.075Z,0.00
2018-09-17T01:00:02.356Z,0.00
2018-09-17T01:01:23.330Z,0.00
2018-09-17T01:02:23.585Z,0.00
2018-09-17T01:03:23.826Z,0.00
2018-09-17T01:04:23.879Z,0.00
2018-09-17T01:05:24.019Z,0.00
2018-09-17T01:06:24.027Z,0.00
2018-09-17T01:07:24.266Z,0.00
2018-09-17T01:08:24.153Z,0.00
2018-09-17T01:09:24.234Z,0.00
2018-09-17T01:10:23.537Z,0.00
2018-09-17T01:11:24.400Z,0.00
2018-09-17T01:12:23.675Z,0.00
2018-09-17T01:13:24.040Z,0.00
2018-09-17T01:14:24.540Z,0.00
2018-09-17T01:15:23.793Z,0.00
2018-09-17T01:16:23.765Z,0.00
2018-09-17T01:17:24.196Z,0.00
2018-09-17T01:18:24.361Z,0.00
2018-09-17T01:19:23.597Z,0.00
2018-09-17T01:20:23.815Z,0.00
2018-09-17T01:21:44.947Z,0.00
2018-09-17T01:22:45.507Z,0.00
2018-09-17T01:23:45.772Z,0.00
2018-09-17T01:24:44.938Z,0.00
2018-09-17T01:25:45.056Z,0.00
2018-09-17T01:26:45.472Z,0.00
2018-09-17T01:27:45.826Z,0.00
2018-09-17T01:28:44.931Z,0.00
2018-09-17T01:29:45.198Z,0.00
2018-09-17T01:30:45.280Z,0.00
2018-09-17T01:31:45.601Z,0.00
2018-09-17T01:32:46.025Z,0.00
2018-09-17T01:33:45.203Z,0.00
2018-09-17T01:34:45.218Z,0.00
2018-09-17T01:35:45.495Z,0.00
2018-09-17T01:36:45.393Z,0.00
2018-09-17T01:38:06.411Z,0.00
2018-09-17T01:39:06.806Z,0.00
2018-09-17T01:40:06.852Z,0.00
2018-09-17T01:41:28.060Z,0.00
2018-09-17T01:42:28.335Z,0.00
2018-09-17T01:43:28.526Z,0.00
2018-09-17T01:44:28.667Z,0.00
2018-09-17T01:45:28.786Z,0.00
2018-09-17T01:46:28.838Z,0.00
2018-09-17T01:47:27.893Z,0.00
2018-09-17T01:48:28.270Z,0.00
2018-09-17T01:49:28.530Z,0.00
2018-09-17T01:50:28.611Z,0.00
2018-09-17T01:51:28.881Z,0.00
2018-09-17T01:52:29.025Z,0.00
2018-09-17T01:53:28.103Z,0.00
2018-09-17T01:54:28.275Z,0.00
2018-09-17T01:55:28.543Z,0.00
2018-09-17T01:56:28.623Z,0.00
2018-09-17T01:57:28.752Z,0.00
2018-09-17T01:58:28.921Z,0.00
2018-09-17T01:59:28.065Z,0.00
2018-09-17T02:00:49.183Z,0.00
2018-09-17T02:01:49.099Z,0.00
2018-09-17T02:02:49.125Z,0.00
2018-09-17T02:03:49.373Z,0.00
2018-09-17T02:04:49.614Z,0.00
2018-09-17T02:05:49.924Z,0.00
2018-09-17T02:06:49.441Z,0.00
2018-09-17T02:07:49.855Z,0.00
2018-09-17T02:08:49.295Z,0.00
2018-09-17T02:10:31.075Z,0.00
2018-09-17T02:12:36.061Z,0.00
2018-09-17T02:13:36.292Z,0.00
2018-09-17T02:14:36.421Z,0.00
2018-09-17T02:15:36.852Z,0.00
2018-09-17T02:16:36.004Z,0.00
2018-09-17T02:17:36.278Z,0.00
2018-09-17T02:18:36.440Z,0.00
2018-09-17T02:19:57.265Z,0.00
2018-09-17T02:20:57.445Z,0.00
2018-09-17T02:21:57.871Z,0.00
2018-09-17T02:22:58.005Z,0.00
2018-09-17T02:23:58.197Z,0.00
2018-09-17T02:24:58.854Z,0.00
2018-09-17T02:25:57.816Z,0.00
2018-09-17T02:26:57.892Z,0.00
2018-09-17T02:27:58.033Z,0.00
2018-09-17T02:29:19.102Z,0.00
2018-09-17T02:30:40.074Z,0.00
2018-09-17T02:32:01.063Z,0.00
2018-09-17T02:33:01.375Z,0.00
2018-09-17T02:34:01.567Z,0.00
2018-09-17T02:35:01.522Z,0.00
2018-09-17T02:36:01.615Z,0.00
2018-09-17T02:37:01.785Z,0.00
2018-09-17T02:38:01.862Z,0.00
2018-09-17T02:39:01.943Z,0.00
2018-09-17T02:40:02.020Z,0.00
2018-09-17T02:41:01.362Z,0.00
2018-09-17T02:42:01.770Z,0.00
2018-09-17T02:43:01.918Z,0.00
2018-09-17T02:44:01.097Z,0.00
2018-09-17T02:45:01.427Z,0.00
2018-09-17T02:46:01.465Z,0.00
2018-09-17T02:47:01.635Z,0.00
2018-09-17T02:48:01.749Z,0.00
2018-09-17T02:49:22.611Z,0.00
2018-09-17T02:50:22.946Z,0.00
2018-09-17T02:51:44.148Z,0.00
2018-09-17T02:52:44.528Z,0.00
2018-09-17T02:54:05.614Z,0.00
2018-09-17T02:55:05.720Z,0.00
2018-09-17T02:56:28.039Z,0.00
2018-09-17T02:57:49.020Z,0.00
2018-09-17T02:58:49.121Z,0.00
2018-09-17T02:59:49.355Z,0.00
2018-09-17T03:00:49.314Z,0.00
2018-09-17T03:01:49.612Z,0.00
2018-09-17T03:02:49.667Z,0.00
2018-09-17T03:03:49.754Z,0.00
2018-09-17T03:04:48.948Z,0.00
2018-09-17T03:05:49.332Z,0.00
2018-09-17T03:06:49.567Z,0.00
2018-09-17T03:07:49.771Z,0.00
2018-09-17T03:08:48.930Z,0.00
2018-09-17T03:09:49.163Z,0.00
2018-09-17T03:10:49.299Z,0.00
2018-09-17T03:11:49.474Z,0.00
2018-09-17T03:12:49.641Z,0.00
2018-09-17T03:13:49.949Z,0.00
2018-09-17T03:14:49.149Z,0.00
2018-09-17T03:15:49.218Z,0.00
2018-09-17T03:16:49.406Z,0.00
2018-09-17T03:17:49.584Z,0.00
2018-09-17T03:18:49.563Z,0.00
2018-09-17T03:19:49.631Z,0.00
2018-09-17T03:20:49.761Z,0.00
2018-09-17T03:21:48.835Z,0.00
2018-09-17T03:22:48.724Z,0.00
2018-09-17T03:23:49.836Z,0.00
2018-09-17T03:24:49.039Z,0.00
2018-09-17T03:25:49.283Z,0.00
2018-09-17T03:26:49.493Z,0.00
2018-09-17T03:28:10.404Z,0.00
2018-09-17T03:29:10.780Z,0.00
2018-09-17T03:30:11.216Z,0.00
2018-09-17T03:31:10.523Z,0.00
2018-09-17T03:32:10.746Z,0.00
2018-09-17T03:33:11.099Z,0.00
2018-09-17T03:34:11.257Z,0.00
2018-09-17T03:35:10.541Z,0.00
2018-09-17T03:36:10.570Z,0.00
2018-09-17T03:37:10.581Z,0.00
2018-09-17T03:38:31.607Z,0.00
2018-09-17T03:39:31.695Z,0.00
2018-09-17T03:40:31.977Z,0.00
2018-09-17T03:41:53.053Z,0.00
2018-09-17T03:42:53.258Z,0.00
2018-09-17T03:43:53.409Z,0.00
2018-09-17T03:44:53.693Z,0.00
2018-09-17T03:45:53.879Z,0.00
2018-09-17T03:46:53.246Z,0.00
2018-09-17T03:48:14.420Z,0.00
2018-09-17T03:49:14.564Z,0.00
2018-09-17T03:50:14.582Z,0.00
2018-09-17T03:51:14.733Z,0.00
2018-09-17T03:52:15.015Z,0.00
2018-09-17T03:53:15.179Z,0.00
2018-09-17T03:54:35.123Z,0.00
2018-09-17T03:55:35.385Z,0.00
2018-09-17T03:56:35.584Z,0.00
2018-09-17T03:57:35.845Z,0.00
2018-09-17T03:58:35.988Z,0.00
2018-09-17T03:59:35.231Z,0.00
2018-09-17T04:00:35.690Z,0.00
2018-09-17T04:01:36.033Z,0.00
2018-09-17T04:02:35.372Z,0.00
2018-09-17T04:03:35.432Z,0.00
2018-09-17T04:04:35.573Z,0.00
2018-09-17T04:05:35.732Z,0.00
2018-09-17T04:06:56.760Z,0.00
2018-09-17T04:07:56.911Z,0.00
2018-09-17T04:08:57.216Z,0.00
2018-09-17T04:10:18.380Z,0.00
2018-09-17T04:11:18.550Z,0.00
2018-09-17T04:12:18.807Z,0.00
2018-09-17T04:13:18.916Z,0.00
2018-09-17T04:14:18.987Z,0.00
2018-09-17T04:15:19.355Z,0.00
2018-09-17T04:16:39.270Z,0.00
2018-09-17T04:17:39.606Z,0.00
2018-09-17T04:19:00.611Z,0.00
2018-09-17T04:20:00.701Z,0.00
2018-09-17T04:21:00.994Z,0.00
2018-09-17T04:22:01.255Z,0.00
2018-09-17T04:23:01.341Z,0.00
2018-09-17T04:24:00.789Z,1.00
2018-09-17T04:25:00.996Z,1.00
2018-09-17T04:26:01.251Z,0.00
2018-09-17T04:27:01.614Z,1.00
2018-09-17T04:28:00.849Z,1.00
2018-09-17T04:29:01.246Z,1.00
2018-09-17T04:30:43.632Z,1.00
2018-09-17T04:31:43.873Z,2.00
2018-09-17T04:32:44.244Z,3.00
2018-09-17T04:33:44.508Z,3.00
2018-09-17T04:34:43.946Z,3.00
2018-09-17T04:36:05.021Z,4.00
2018-09-17T04:37:05.352Z,5.00
2018-09-17T04:38:05.466Z,7.00
2018-09-17T04:39:26.564Z,8.00
2018-09-17T04:40:26.908Z,10.00
2018-09-17T04:41:27.071Z,12.00
2018-09-17T04:42:27.184Z,14.00
2018-09-17T04:43:27.398Z,16.00
2018-09-17T04:44:26.741Z,19.00
2018-09-17T04:45:27.088Z,23.00
2018-09-17T04:46:27.453Z,26.00
2018-09-17T04:47:26.646Z,32.00
2018-09-17T04:48:27.149Z,38.00
2018-09-17T04:49:27.151Z,46.00
2018-09-17T04:50:27.330Z,55.00
2018-09-17T04:51:26.509Z,64.00
2018-09-17T04:52:26.762Z,73.00
2018-09-17T04:53:27.125Z,82.00
2018-09-17T04:54:26.489Z,93.00
2018-09-17T04:55:26.747Z,107.00
2018-09-17T04:56:26.881Z,126.00
2018-09-17T04:57:27.193Z,148.00
2018-09-17T04:58:26.472Z,166.00
2018-09-17T04:59:26.825Z,180.00
2018-09-17T05:01:29.985Z,214.00
2018-09-17T05:02:29.963Z,245.00
2018-09-17T05:03:30.314Z,279.00
2018-09-17T05:04:30.598Z,304.00
2018-09-17T05:05:30.811Z,318.00
2018-09-17T05:06:30.980Z,332.00
2018-09-17T05:07:30.223Z,353.00
2018-09-17T05:08:30.404Z,379.00
2018-09-17T05:09:30.561Z,408.00
2018-09-17T05:10:30.774Z,438.00
2018-09-17T05:11:31.110Z,471.00
2018-09-17T05:13:33.239Z,557.00
2018-09-17T05:14:33.589Z,609.00
2018-09-17T05:15:33.705Z,667.00
2018-09-17T05:16:33.678Z,725.00
2018-09-17T05:17:33.858Z,783.00
2018-09-17T05:18:34.258Z,840.00
2018-09-17T05:20:15.173Z,928.00
2018-09-17T05:21:36.137Z,996.00
2018-09-17T05:22:36.363Z,1047.00
2018-09-17T05:23:36.636Z,1098.00
2018-09-17T05:24:36.736Z,1153.00
2018-09-17T05:25:57.971Z,1227.00
2018-09-17T05:27:19.312Z,1309.00
2018-09-17T05:28:19.396Z,1375.00
2018-09-17T05:29:19.745Z,1445.00
2018-09-17T05:30:19.879Z,1519.00
2018-09-17T05:31:20.239Z,1600.00
2018-09-17T05:32:19.404Z,1685.00
2018-09-17T05:33:19.469Z,1769.00
2018-09-17T05:34:40.520Z,1898.00
2018-09-17T05:35:40.782Z,1995.00
2018-09-17T05:36:41.135Z,2097.00
2018-09-17T05:37:41.149Z,2203.00
2018-09-17T05:39:02.792Z,2346.00
2018-09-17T05:40:03.152Z,2454.00
2018-09-17T05:41:03.260Z,2559.00
2018-09-17T05:42:03.659Z,2665.00
2018-09-17T05:43:03.187Z,2767.00
2018-09-17T05:44:03.596Z,2869.00
2018-09-17T05:45:02.734Z,2977.00
2018-09-17T05:46:02.936Z,3089.00
2018-09-17T05:47:03.102Z,3202.00
2018-09-17T05:48:03.552Z,3315.00
2018-09-17T05:49:02.653Z,3434.00
2018-09-17T05:50:03.843Z,3548.00
2018-09-17T05:51:24.396Z,3681.00
2018-09-17T05:52:24.447Z,3779.00
2018-09-17T05:53:24.375Z,3878.00
2018-09-17T05:54:24.422Z,3975.00
2018-09-17T05:55:45.647Z,4087.00
2018-09-17T05:57:06.938Z,4180.00
2018-09-17T05:58:07.296Z,4236.00
2018-09-17T05:59:07.605Z,4286.00
2018-09-17T06:00:06.765Z,4314.00
2018-09-17T06:01:07.197Z,4328.00
2018-09-17T06:02:07.649Z,4331.00
2018-09-17T06:03:07.805Z,4318.00
2018-09-17T06:04:07.416Z,4299.00
2018-09-17T06:05:08.209Z,4282.00
2018-09-17T06:06:08.348Z,4290.00
2018-09-17T06:07:11.977Z,4300.00
2018-09-17T06:08:07.303Z,4327.00
2018-09-17T06:09:08.276Z,4384.00
2018-09-17T06:10:07.358Z,4463.00
2018-09-17T06:11:29.364Z,4563.00
2018-09-17T06:12:28.767Z,4631.00
2018-09-17T06:13:29.253Z,4762.00
2018-09-17T06:14:29.254Z,4971.00
2018-09-17T06:15:30.075Z,5099.00
2018-09-17T06:16:31.680Z,5132.00
2018-09-17T06:17:29.149Z,5125.00
2018-09-17T06:18:50.417Z,5004.00
2018-09-17T06:19:51.255Z,5026.00
2018-09-17T06:20:50.782Z,5045.00
2018-09-17T06:21:51.175Z,5059.00
2018-09-17T06:22:51.184Z,5071.00
2018-09-17T06:23:51.366Z,5196.00
2018-09-17T06:24:50.595Z,5459.00
2018-09-17T06:25:50.943Z,5214.00
2018-09-17T06:26:51.238Z,5512.00
2018-09-17T06:27:51.262Z,5832.00
2018-09-17T06:28:50.584Z,5702.00
2018-09-17T06:29:50.991Z,5946.00
2018-09-17T06:30:52.364Z,6278.00
2018-09-17T06:31:50.613Z,6266.00
2018-09-17T06:32:50.841Z,6147.00
2018-09-17T06:33:51.159Z,6619.00
2018-09-17T06:34:50.819Z,6897.00
2018-09-17T06:35:51.379Z,6802.00
2018-09-17T06:36:50.814Z,7126.00
2018-09-17T06:38:12.331Z,7916.00
2018-09-17T06:39:12.660Z,8142.00
2018-09-17T06:40:12.808Z,7665.00
2018-09-17T06:41:13.038Z,7155.00
2018-09-17T06:42:13.174Z,6755.00
2018-09-17T06:43:13.646Z,7919.00
2018-09-17T06:44:12.952Z,8341.00
2018-09-17T06:45:13.384Z,8592.00
2018-09-17T06:46:12.671Z,8719.00
2018-09-17T06:47:12.962Z,8201.00
2018-09-17T06:48:12.950Z,8590.00
2018-09-17T06:49:55.401Z,8135.00
2018-09-17T06:50:55.968Z,9139.00
2018-09-17T06:51:57.031Z,9482.00
2018-09-17T06:52:55.404Z,10009.00
2018-09-17T06:53:55.665Z,10349.00
2018-09-17T06:54:55.954Z,10769.00
2018-09-17T06:55:56.272Z,11347.00
2018-09-17T06:56:55.686Z,11785.00
2018-09-17T06:57:56.147Z,12013.00
2018-09-17T06:58:55.438Z,12144.00
2018-09-17T06:59:55.796Z,12054.00
2018-09-17T07:01:17.316Z,12013.00
2018-09-17T07:02:17.523Z,11965.00
2018-09-17T07:03:18.063Z,11406.00
2018-09-17T07:04:17.567Z,10472.00
2018-09-17T07:05:17.737Z,12234.00
2018-09-17T07:06:18.128Z,12500.00
2018-09-17T07:07:17.626Z,13020.00
2018-09-17T07:08:17.864Z,12419.00
2018-09-17T07:09:17.116Z,12274.00
2018-09-17T07:10:17.573Z,12061.00
2018-09-17T07:11:17.794Z,12660.00
2018-09-17T07:12:18.131Z,13515.00
2018-09-17T07:13:17.601Z,14295.00
2018-09-17T07:14:17.998Z,13933.00
2018-09-17T07:15:17.474Z,16592.00
2018-09-17T07:16:17.982Z,17760.00
2018-09-17T07:17:30.127Z,18056.00
2018-09-17T07:18:19.624Z,18472.00
2018-09-17T07:19:39.738Z,19376.00
2018-09-17T07:20:40.769Z,19704.00
2018-09-17T07:21:40.192Z,19800.00
2018-09-17T07:22:39.772Z,18656.00
2018-09-17T07:23:40.081Z,19184.00
2018-09-17T07:24:40.296Z,18104.00
2018-09-17T07:25:39.484Z,18240.00
2018-09-17T07:27:22.336Z,18968.00
2018-09-17T07:28:22.801Z,19328.00
2018-09-17T07:29:43.595Z,20664.00
2018-09-17T07:30:43.844Z,25816.00
2018-09-17T07:31:44.226Z,29328.00
2018-09-17T07:32:43.479Z,30224.00
2018-09-17T07:33:44.151Z,28936.00
2018-09-17T07:34:43.524Z,30296.00
2018-09-17T07:35:43.848Z,27008.00
2018-09-17T07:36:44.943Z,24504.00
2018-09-17T07:38:05.565Z,22760.00
2018-09-17T07:39:06.012Z,21616.00
2018-09-17T07:40:06.356Z,20064.00
2018-09-17T07:41:05.804Z,20160.00
2018-09-17T07:42:06.258Z,21736.00
2018-09-17T07:43:05.694Z,21680.00
2018-09-17T07:44:06.200Z,21552.00
2018-09-17T07:45:06.519Z,22736.00
2018-09-17T07:46:05.991Z,20120.00
2018-09-17T07:47:07.551Z,24432.00
2018-09-17T07:48:05.930Z,25192.00
2018-09-17T07:49:06.334Z,23480.00
2018-09-17T07:50:06.741Z,24008.00
2018-09-17T07:51:06.014Z,27808.00
2018-09-17T07:52:06.611Z,30016.00
2018-09-17T07:53:07.875Z,30832.00
2018-09-17T07:54:06.473Z,30032.00
2018-09-17T07:55:07.026Z,32816.00
2018-09-17T07:56:06.649Z,34592.00
2018-09-17T07:57:06.042Z,32008.00
2018-09-17T07:58:06.291Z,34440.00
2018-09-17T07:59:27.110Z,37440.00
2018-09-17T08:00:27.541Z,38472.00
2018-09-17T08:01:27.148Z,38312.00
2018-09-17T08:02:48.774Z,39920.00
2018-09-17T08:04:10.127Z,41424.00
2018-09-17T08:05:31.659Z,42288.00
2018-09-17T08:06:53.299Z,44832.00
2018-09-17T08:07:53.944Z,45312.00
2018-09-17T08:09:56.370Z,47840.00
2018-09-17T08:10:56.812Z,43664.00
2018-09-17T08:11:57.256Z,39840.00
2018-09-17T08:12:56.513Z,44712.00
2018-09-17T08:13:56.937Z,43784.00
2018-09-17T08:14:57.318Z,44176.00
2018-09-17T08:16:17.854Z,46640.00
2018-09-17T08:17:18.359Z,44848.00
2018-09-17T08:18:18.656Z,40304.00
2018-09-17T08:19:17.973Z,36408.00
2018-09-17T08:20:18.639Z,32896.00
2018-09-17T08:21:18.129Z,32632.00
2018-09-17T08:22:18.539Z,32248.00
2018-09-17T08:23:18.091Z,32008.00
2018-09-17T08:24:39.336Z,33080.00
2018-09-17T08:26:00.945Z,34752.00
2018-09-17T08:27:02.900Z,36560.00
2018-09-17T08:28:01.422Z,35968.00
2018-09-17T08:29:01.529Z,36272.00
2018-09-17T08:30:01.009Z,37152.00
2018-09-17T08:31:01.690Z,34464.00
2018-09-17T08:32:22.285Z,32568.00
2018-09-17T08:33:22.867Z,32760.00
2018-09-17T08:34:23.206Z,32944.00
2018-09-17T08:35:22.528Z,34224.00
2018-09-17T08:36:22.878Z,38544.00
2018-09-17T08:37:22.484Z,36816.00
2018-09-17T08:38:23.080Z,35768.00
2018-09-17T08:39:22.488Z,37128.00
2018-09-17T08:40:23.232Z,38952.00
2018-09-17T08:41:22.563Z,37512.00
2018-09-17T08:42:23.022Z,40576.00
2018-09-17T08:43:22.334Z,40640.00
2018-09-17T08:44:22.776Z,41576.00
2018-09-17T08:45:23.465Z,41016.00
2018-09-17T08:46:44.048Z,45088.00
2018-09-17T08:48:05.578Z,44408.00
2018-09-17T08:49:06.143Z,46016.00
2018-09-17T08:50:06.617Z,42432.00
2018-09-17T08:51:06.088Z,37040.00
2018-09-17T08:52:06.319Z,35448.00
2018-09-17T08:53:05.647Z,37360.00
2018-09-17T08:54:06.090Z,48848.00
2018-09-17T08:55:06.363Z,48448.00
2018-09-17T08:56:05.534Z,51056.00
2018-09-17T08:57:05.678Z,56632.00
2018-09-17T08:58:05.972Z,53312.00
2018-09-17T08:59:06.049Z,51976.00
2018-09-17T09:00:06.571Z,51120.00
2018-09-17T09:01:27.528Z,53280.00
2018-09-17T09:02:27.935Z,55312.00
2018-09-17T09:03:28.506Z,59816.00
2018-09-17T09:04:49.149Z,62880.00
2018-09-17T09:05:49.829Z,63136.00
2018-09-17T09:07:10.876Z,55232.00
2018-09-17T09:08:11.096Z,58080.00
2018-09-17T09:09:11.209Z,55824.00
2018-09-17T09:10:11.819Z,59048.00
2018-09-17T09:11:13.343Z,61520.00
2018-09-17T09:12:11.668Z,56568.00
2018-09-17T09:13:11.099Z,60048.00
2018-09-17T09:14:11.366Z,60384.00
2018-09-17T09:15:32.881Z,53064.00
2018-09-17T09:16:33.508Z,50888.00
2018-09-17T09:17:32.935Z,49576.00
2018-09-17T09:18:33.374Z,51408.00
2018-09-17T09:19:55.388Z,57360.00
2018-09-17T09:21:21.420Z,57664.00
2018-09-17T09:22:21.687Z,55568.00
2018-09-17T09:23:42.024Z,59072.00
2018-09-17T09:24:42.344Z,56096.00
2018-09-17T09:25:43.244Z,55432.00
2018-09-17T09:27:03.603Z,59944.00
2018-09-17T09:28:04.221Z,58008.00
2018-09-17T09:29:04.515Z,59792.00
2018-09-17T09:31:10.543Z,56248.00
2018-09-17T09:32:10.803Z,53328.00
2018-09-17T09:33:11.365Z,52040.00
2018-09-17T09:34:10.355Z,46272.00
2018-09-17T09:35:10.694Z,46264.00
2018-09-17T09:36:11.199Z,46496.00
2018-09-17T09:37:31.895Z,43760.00
2018-09-17T09:38:32.122Z,41488.00
2018-09-17T09:39:32.450Z,40624.00
2018-09-17T09:40:38.023Z,42520.00
2018-09-17T09:41:32.154Z,43072.00
2018-09-17T09:42:32.446Z,45536.00
2018-09-17T09:43:32.088Z,48776.00
2018-09-17T09:44:32.438Z,51096.00
2018-09-17T09:45:32.743Z,52112.00
2018-09-17T09:46:32.218Z,50576.00
2018-09-17T09:47:32.480Z,50080.00
2018-09-17T09:49:14.872Z,54232.00
2018-09-17T09:50:15.008Z,53808.00
2018-09-17T09:51:16.181Z,57720.00
2018-09-17T09:52:15.462Z,58504.00
2018-09-17T09:53:15.945Z,55936.00
2018-09-17T09:54:15.326Z,56272.00
2018-09-17T09:55:15.485Z,59136.00
2018-09-17T09:56:16.056Z,63328.00
2018-09-17T09:57:15.331Z,64864.00
2018-09-17T09:58:16.287Z,65535.00
2018-09-17T09:59:15.484Z,65535.00
2018-09-17T10:00:16.685Z,64224.00
2018-09-17T10:01:15.119Z,60576.00
2018-09-17T10:02:15.232Z,62240.00
2018-09-17T10:03:15.831Z,63472.00
2018-09-17T10:04:57.463Z,65535.00
2018-09-17T10:06:18.877Z,65535.00
2018-09-17T10:07:19.111Z,65535.00
2018-09-17T10:08:20.094Z,65535.00
2018-09-17T10:09:19.470Z,65535.00
2018-09-17T10:10:19.803Z,65535.00
2018-09-17T10:11:19.049Z,65535.00
2018-09-17T10:12:19.439Z,65535.00
2018-09-17T10:13:18.956Z,65535.00
2018-09-17T10:14:19.306Z,63192.00
2018-09-17T10:15:21.890Z,63136.00
2018-09-17T10:16:19.920Z,62000.00
2018-09-17T10:17:19.185Z,63928.00
2018-09-17T10:18:40.493Z,64584.00
2018-09-17T10:19:40.575Z,62752.00
2018-09-17T10:20:40.939Z,64224.00
2018-09-17T10:21:41.534Z,65535.00
2018-09-17T10:22:40.846Z,64856.00
2018-09-17T10:23:41.581Z,64952.00
2018-09-17T10:24:41.204Z,59544.00
2018-09-17T10:25:41.613Z,57232.00
2018-09-17T10:26:40.996Z,60112.00
2018-09-17T10:28:02.601Z,65535.00
2018-09-17T10:29:02.913Z,65535.00
2018-09-17T10:30:24.786Z,65535.00
2018-09-17T10:31:25.731Z,65535.00
2018-09-17T10:32:25.008Z,65535.00
2018-09-17T10:33:46.931Z,65535.00
2018-09-17T10:34:47.380Z,65535.00
2018-09-17T10:35:46.701Z,65535.00
2018-09-17T10:36:47.026Z,65535.00
2018-09-17T10:37:47.221Z,65535.00
2018-09-17T10:38:47.621Z,65535.00
2018-09-17T10:39:46.950Z,61320.00
2018-09-17T10:40:47.243Z,58320.00
2018-09-17T10:41:47.456Z,61504.00
2018-09-17T10:42:46.805Z,65535.00
2018-09-17T10:43:47.140Z,65535.00
2018-09-17T10:44:47.548Z,65535.00
2018-09-17T10:45:46.909Z,65535.00
2018-09-17T10:46:47.391Z,65535.00
2018-09-17T10:47:47.609Z,65535.00
2018-09-17T10:48:46.730Z,65535.00
2018-09-17T10:49:46.956Z,65535.00
2018-09-17T10:50:47.290Z,65535.00
2018-09-17T10:51:46.865Z,65535.00
2018-09-17T10:52:47.141Z,65535.00
2018-09-17T10:53:48.521Z,65535.00
2018-09-17T10:54:47.071Z,65535.00
2018-09-17T10:55:47.362Z,65535.00
2018-09-17T10:56:46.792Z,65535.00
2018-09-17T10:57:47.364Z,65535.00
2018-09-17T10:59:32.310Z,65535.00
2018-09-17T11:00:31.629Z,65535.00
2018-09-17T11:01:32.110Z,65535.00
2018-09-17T11:02:31.290Z,65535.00
2018-09-17T11:03:31.412Z,65535.00
2018-09-17T11:04:31.957Z,65535.00
2018-09-17T11:05:32.412Z,65535.00
2018-09-17T11:06:31.726Z,65535.00
2018-09-17T11:07:32.052Z,65535.00
2018-09-17T11:09:14.922Z,65535.00
2018-09-17T11:10:15.448Z,65535.00
2018-09-17T11:11:15.731Z,65535.00
2018-09-17T11:12:14.900Z,65535.00
2018-09-17T11:13:36.527Z,65535.00
2018-09-17T11:14:36.523Z,65535.00
2018-09-17T11:15:36.736Z,62800.00
2018-09-17T11:16:37.548Z,63744.00
2018-09-17T11:17:37.569Z,63392.00
2018-09-17T11:18:36.733Z,61456.00
2018-09-17T11:19:37.188Z,63664.00
2018-09-17T11:20:36.533Z,65160.00
2018-09-17T11:21:37.159Z,65535.00
2018-09-17T11:22:37.570Z,65535.00
2018-09-17T11:23:36.815Z,65535.00
2018-09-17T11:24:37.046Z,65535.00
2018-09-17T11:25:37.292Z,65535.00
2018-09-17T11:26:36.360Z,65535.00
2018-09-17T11:27:36.988Z,63608.00
2018-09-17T11:28:38.217Z,59688.00
2018-09-17T11:30:39.462Z,57384.00
2018-09-17T11:31:39.793Z,59696.00
2018-09-17T11:32:40.132Z,60864.00
2018-09-17T11:33:39.656Z,58880.00
2018-09-17T11:34:40.047Z,60680.00
2018-09-17T11:35:40.208Z,63544.00
2018-09-17T11:36:40.564Z,63960.00
2018-09-17T11:37:39.787Z,62248.00
2018-09-17T11:38:39.937Z,61720.00
2018-09-17T11:39:40.303Z,65104.00
2018-09-17T11:40:39.912Z,65535.00
2018-09-17T11:41:41.131Z,65535.00
2018-09-17T11:42:39.473Z,65535.00
2018-09-17T11:43:39.925Z,65535.00
2018-09-17T11:45:22.597Z,65535.00
2018-09-17T11:46:23.695Z,65535.00
2018-09-17T11:47:23.312Z,65535.00
2018-09-17T11:48:23.580Z,65535.00
2018-09-17T11:49:44.118Z,64456.00
2018-09-17T11:50:44.386Z,59872.00
2018-09-17T11:51:44.809Z,56280.00
2018-09-17T11:52:44.268Z,57400.00
2018-09-17T11:53:44.698Z,52864.00
2018-09-17T11:54:44.039Z,60312.00
2018-09-17T11:55:44.435Z,60832.00
2018-09-17T11:56:44.861Z,64160.00
2018-09-17T11:57:43.874Z,61904.00
2018-09-17T11:58:44.159Z,59960.00
2018-09-17T11:59:44.427Z,57104.00
2018-09-17T12:01:06.441Z,57984.00
2018-09-17T12:02:06.129Z,62104.00
2018-09-17T12:03:07.119Z,62736.00
2018-09-17T12:04:06.557Z,56640.00
2018-09-17T12:05:06.755Z,57128.00
2018-09-17T12:06:06.263Z,59904.00
2018-09-17T12:07:06.674Z,55464.00
2018-09-17T12:08:06.043Z,52240.00
2018-09-17T12:09:06.436Z,51160.00
2018-09-17T12:10:06.715Z,52416.00
2018-09-17T12:11:06.095Z,58496.00
2018-09-17T12:12:06.957Z,57296.00
2018-09-17T12:13:06.297Z,58088.00
2018-09-17T12:14:06.612Z,63856.00
2018-09-17T12:15:27.121Z,65535.00
2018-09-17T12:16:27.676Z,65535.00
2018-09-17T12:17:27.093Z,65535.00
2018-09-17T12:18:48.555Z,65535.00
2018-09-17T12:19:48.736Z,65535.00
2018-09-17T12:21:33.596Z,65535.00
2018-09-17T12:22:33.251Z,65535.00
2018-09-17T12:23:54.555Z,65535.00
2018-09-17T12:24:55.020Z,65535.00
2018-09-17T12:25:55.524Z,65535.00
2018-09-17T12:26:54.893Z,65535.00
2018-09-17T12:27:55.353Z,65535.00
2018-09-17T12:28:54.814Z,65535.00
2018-09-17T12:29:55.199Z,65535.00
2018-09-17T12:30:54.716Z,65535.00
2018-09-17T12:31:55.806Z,65535.00
2018-09-17T12:32:55.996Z,65535.00
2018-09-17T12:34:16.439Z,65535.00
2018-09-17T12:35:16.904Z,65535.00
2018-09-17T12:36:17.462Z,65535.00
2018-09-17T12:37:16.909Z,65535.00
2018-09-17T12:38:17.294Z,65535.00
2018-09-17T12:39:16.732Z,65535.00
2018-09-17T12:40:17.180Z,63928.00
2018-09-17T12:41:37.822Z,63184.00
2018-09-17T12:43:20.569Z,61848.00
2018-09-17T12:44:21.772Z,64864.00
2018-09-17T12:45:20.937Z,65535.00
2018-09-17T12:46:21.328Z,65008.00
2018-09-17T12:47:20.579Z,61936.00
2018-09-17T12:48:20.967Z,62736.00
2018-09-17T12:49:22.395Z,63440.00
2018-09-17T12:50:20.711Z,58408.00
2018-09-17T12:51:21.175Z,63216.00
2018-09-17T12:52:21.401Z,60512.00
2018-09-17T12:53:20.971Z,57760.00
2018-09-17T12:54:22.206Z,57344.00
2018-09-17T12:55:21.894Z,62904.00
2018-09-17T12:56:22.131Z,62792.00
2018-09-17T12:57:21.631Z,59640.00
2018-09-17T12:58:21.626Z,60288.00
2018-09-17T12:59:22.507Z,62608.00
2018-09-17T13:00:20.849Z,63184.00
2018-09-17T13:01:21.127Z,61344.00
2018-09-17T13:02:21.546Z,60072.00
2018-09-17T13:03:24.095Z,60408.00
2018-09-17T13:04:21.846Z,61408.00
2018-09-17T13:05:21.455Z,60032.00